Date,TemperatureHighF,TemperatureAvgF,TemperatureLowF,DewpointHighF,DewpointAvgF,DewpointLowF,HumidityHigh,HumidityAvg,HumidityLow,PressureMaxIn,PressureMinIn,WindSpeedMaxMPH,WindSpeedAvgMPH,GustSpeedMaxMPH,PrecipitationSumIn
2013-1-1,32,29,18,31,26,16,98,90,76,30.13,30.01,9,1,9,0.01
2013-1-2,27,17,9,20,14,7,95,87,64,30.26,30.11,5,0,5,0.00
2013-1-3,35,22,9,26,17,7,93,82,58,30.31,30.21,7,0,8,0.02
2013-1-4,35,29,24,26,23,19,86,79,62,30.32,30.26,11,1,11,0.03
2013-1-5,40,30,16,30,24,15,96,82,64,30.36,30.15,9,1,9,0.01
2013-1-6,38,32,27,33,28,23,91,85,81,30.33,29.99,10,1,10,0.01
2013-1-7,39,28,18,29,24,16,96,83,65,30.47,30.25,9,1,9,0.01
2013-1-8,49,34,22,35,28,20,94,81,57,30.31,30.21,7,0,8,0.00
2013-1-9,52,41,31,43,36,29,95,82,63,30.48,30.19,8,0,9,0.04
2013-1-10,44,35,28,38,32,26,97,88,80,30.50,30.10,13,3,13,0.04
2013-1-11,61,53,44,56,49,38,98,88,75,30.10,29.86,15,3,15,0.43
2013-1-12,64,58,53,62,56,49,99,94,84,29.98,29.75,14,1,14,0.01
2013-1-13,65,54,36,62,53,34,98,95,83,30.06,29.67,20,3,20,0.69
2013-1-14,36,27,24,35,24,21,97,89,81,30.43,30.06,9,2,9,0.00
2013-1-15,31,27,23,27,24,20,92,86,81,30.38,30.06,11,4,13,0.00
2013-1-16,37,32,30,30,28,26,90,84,72,30.09,29.96,7,1,7,0.00
2013-1-17,43,32,25,33,27,19,92,82,64,30.36,30.06,11,1,11,0.00
2013-1-18,39,28,16,26,20,14,95,72,46,30.51,30.21,12,2,12,0.00
2013-1-19,54,44,35,32,28,25,68,54,38,30.22,29.87,19,4,19,0.00
2013-1-20,45,33,24,37,21,13,81,61,42,30.18,29.85,13,1,15,0.00
2013-1-21,26,21,9,19,12,1,81,70,52,30.23,30.06,12,1,12,0.00
2013-1-22,21,12,5,5,2,0,80,66,46,30.39,30.23,7,0,8,0.00
2013-1-23,20,16,9,15,8,3,84,71,52,30.36,30.10,8,1,8,0.00
2013-1-24,22,17,11,16,10,5,90,73,55,30.59,30.11,12,2,12,0.00
2013-1-25,25,21,18,22,16,9,90,79,62,30.46,30.04,12,2,12,0.00
2013-1-26,32,24,16,22,19,13,94,81,64,30.44,30.11,7,1,8,0.05
2013-1-27,35,27,17,32,22,13,96,82,70,30.45,30.18,11,2,11,0.25
2013-1-28,51,46,33,51,45,32,99,97,91,30.18,30.00,12,2,12,0.33
2013-1-29,65,57,50,59,54,50,99,90,78,30.02,29.53,20,3,20,0.01
2013-1-30,66,53,32,60,49,29,98,88,79,29.53,29.20,24,4,24,0.86
2013-1-31,32,26,16,29,21,13,92,80,63,30.00,29.46,15,2,16,0.00
2013-2-1,18,10,4,13,5,-1,91,78,64,30.39,30.00,8,1,8,0.00
2013-2-2,29,21,8,26,18,6,92,88,82,30.35,30.00,9,1,9,0.03
2013-2-3,26,21,14,24,16,11,92,83,66,30.11,29.91,6,0,7,0.01
2013-2-4,33,25,12,32,22,10,97,89,72,30.11,29.83,11,1,11,0.00
2013-2-5,34,31,26,32,28,24,97,88,77,29.98,29.83,8,1,8,0.02
2013-2-6,34,31,26,31,27,23,91,84,72,30.26,29.98,7,1,8,0.03
2013-2-7,54,40,28,40,33,24,89,77,55,30.21,29.78,10,2,10,0.01
2013-2-8,51,36,28,43,32,22,96,85,61,30.29,29.76,13,2,13,0.17
2013-2-9,39,28,18,25,22,16,95,77,49,30.42,30.23,8,2,9,0.00
2013-2-10,52,41,29,44,31,22,90,69,46,30.24,29.76,18,4,18,0.02
2013-2-11,51,45,34,49,38,29,95,75,53,29.99,29.71,16,3,18,0.01
2013-2-12,50,36,27,32,28,24,92,74,43,30.10,29.90,9,0,9,0.00
2013-2-13,37,31,28,31,28,26,94,89,76,29.90,29.75,9,1,9,0.05
2013-2-14,51,37,28,40,33,27,97,87,62,29.97,29.79,13,2,13,0.00
2013-2-15,40,31,20,34,28,19,97,90,66,30.13,29.95,10,0,10,0.01
2013-2-16,28,21,13,24,16,11,96,84,67,30.12,30.02,8,0,8,0.03
2013-2-17,33,20,10,18,12,8,92,73,45,30.24,30.11,9,1,9,0.01
2013-2-18,58,50,34,41,34,21,85,54,40,30.09,29.72,21,4,21,0.07
2013-2-19,44,32,23,41,28,18,95,86,77,30.07,29.60,18,2,18,0.15
2013-2-20,27,22,17,20,16,12,86,77,64,30.30,30.07,9,1,9,0.01
2013-2-21,28,24,21,24,19,15,86,81,76,30.35,30.07,16,4,17,0.00
2013-2-22,40,33,28,39,32,24,98,94,84,30.08,29.89,16,3,17,0.02
2013-2-23,45,34,30,32,29,26,98,83,54,29.97,29.88,7,0,9,0.01
2013-2-24,42,30,25,29,24,21,94,79,57,30.15,29.91,10,1,10,0.00
2013-2-25,44,33,22,31,25,19,93,76,57,30.18,29.91,14,4,20,0.00
2013-2-26,45,39,34,44,36,26,97,88,71,29.91,29.36,19,6,20,0.59
2013-2-27,42,36,32,41,35,31,96,93,88,29.67,29.47,14,2,14,0.06
2013-2-28,35,33,31,34,32,30,97,95,93,29.92,29.64,7,0,7,0.09
2013-3-1,35,32,28,33,30,24,97,91,82,30.02,29.90,8,2,8,0.06
2013-3-2,28,27,26,24,22,21,87,83,79,30.06,30.00,11,2,11,0.00
2013-3-3,33,28,21,23,22,18,90,78,62,30.07,30.02,11,1,13,0.01
2013-3-4,43,30,16,30,22,15,96,75,47,30.16,30.01,8,1,8,0.03
2013-3-5,36,34,32,34,32,30,97,91,81,30.03,29.55,15,5,15,0.30
2013-3-6,34,31,28,32,29,27,97,95,90,30.23,29.58,8,0,8,0.11
2013-3-7,43,33,29,36,30,28,97,90,70,30.36,30.21,6,0,6,0.00
2013-3-8,42,31,23,28,24,20,93,77,52,30.46,30.35,9,2,9,0.00
2013-3-16,35,35,34,32,32,32,90,89,88,30.00,29.94,6,2,7,1.42
2013-3-17,36,34,32,32,30,27,91,83,76,30.13,29.99,15,5,15,0.00
2013-3-18,49,39,32,48,38,30,99,95,81,30.00,29.58,15,2,15,0.97
2013-3-19,46,36,27,36,27,22,93,73,43,30.06,29.78,15,2,15,0.01
2013-3-20,41,30,22,26,21,13,89,69,44,30.06,29.92,10,1,11,0.00
2013-3-21,33,25,19,23,17,14,87,72,56,30.02,29.91,9,1,9,0.01
2013-3-22,44,30,18,26,20,15,91,69,40,30.07,29.98,7,0,7,0.00
2013-3-23,50,37,25,29,24,20,87,62,36,30.05,29.88,10,2,11,0.00
2013-3-24,36,33,32,32,29,26,97,86,70,29.88,29.39,22,7,22,0.01
2013-3-25,34,32,29,33,31,28,98,96,94,29.91,29.40,9,1,9,0.31
2013-3-26,42,34,29,35,31,28,98,89,72,30.20,29.91,7,0,7,0.11
2013-3-27,44,35,28,34,29,25,94,80,60,30.28,30.19,8,0,11,0.00
2013-3-28,52,38,26,35,28,24,92,71,44,30.33,30.26,9,1,10,0.00
2013-3-29,57,41,26,37,31,24,95,70,40,30.30,30.18,10,0,10,0.00
2013-3-30,58,44,29,37,32,26,93,67,40,30.22,29.92,10,1,10,0.00
2013-3-31,58,48,43,50,43,34,97,83,61,29.92,29.72,8,0,8,0.05
2013-4-1,48,40,30,41,30,21,91,68,40,30.09,29.74,14,1,14,0.00
2013-4-2,49,35,20,27,21,17,88,60,35,30.24,30.09,10,1,10,0.00
2013-4-3,46,35,24,24,19,14,76,51,34,30.40,30.24,12,2,13,0.00
2013-4-4,56,40,30,27,22,16,67,50,23,30.34,29.96,10,2,12,0.00
2013-4-5,60,45,31,40,30,24,81,57,37,30.11,29.94,12,2,13,0.00
2013-4-6,65,49,34,39,31,24,67,50,33,30.19,29.87,13,4,13,0.00
2013-4-7,76,64,57,53,46,38,81,52,37,29.92,29.79,13,2,13,0.00
2013-4-8,72,61,49,57,53,48,98,77,58,29.94,29.81,18,2,18,0.08
2013-4-9,80,67,52,63,56,49,95,71,45,29.99,29.85,15,2,15,0.00
2013-4-10,83,72,62,68,61,57,85,71,53,29.89,29.71,14,2,17,0.00
2013-4-11,65,61,58,63,59,56,98,92,83,29.77,29.48,13,2,13,0.93
2013-4-12,58,46,40,57,42,35,99,86,68,29.87,29.45,10,1,12,0.17
2013-4-13,59,46,38,45,38,34,88,75,51,30.00,29.87,11,1,12,0.00
2013-4-14,69,52,34,49,41,32,92,68,42,30.04,29.85,11,2,11,0.00
2013-4-15,68,61,52,57,52,42,84,70,52,29.94,29.85,11,2,13,0.00
2013-4-16,79,64,57,68,58,54,98,84,60,30.11,29.89,14,2,15,0.35
2013-4-17,78,63,52,67,59,51,99,88,64,30.16,29.91,12,3,13,0.44
2013-4-18,83,72,63,66,60,53,86,67,44,29.92,29.54,22,5,22,0.00
2013-4-19,73,49,38,61,42,32,96,78,55,29.92,29.34,17,3,19,0.55
2013-4-20,52,41,34,38,32,27,93,72,46,30.38,29.91,8,1,9,0.00
2013-4-21,54,42,30,37,30,24,80,62,41,30.52,30.36,14,3,14,0.00
2013-4-22,70,52,37,46,37,28,81,57,33,30.36,30.10,9,2,9,0.00
2013-4-23,70,58,45,54,47,38,85,67,52,30.11,29.80,12,2,12,0.00
2013-4-24,64,50,35,56,45,34,97,86,61,30.17,29.71,14,1,15,0.76
2013-4-25,60,44,32,45,36,31,98,76,48,30.35,30.17,12,1,13,0.01
2013-4-26,60,46,30,43,34,29,95,66,37,30.45,30.32,7,1,7,0.00
2013-4-27,68,54,41,52,42,33,87,65,39,30.33,30.02,14,2,14,0.02
2013-4-28,66,58,54,62,56,51,97,92,78,30.02,29.77,12,2,12,0.26
2013-4-29,64,58,51,59,55,50,99,91,76,29.94,29.83,5,0,5,0.01
2013-4-30,76,61,48,62,54,47,99,80,49,30.02,29.93,7,1,8,0.01
2013-5-1,81,67,52,66,57,51,97,74,47,30.13,30.01,11,2,11,0.00
2013-5-2,73,65,58,59,55,51,85,71,56,30.16,30.04,13,2,13,0.00
2013-5-3,75,66,57,60,53,39,90,65,35,30.04,29.91,20,4,22,0.00
2013-5-4,68,62,56,52,48,40,74,59,45,29.96,29.89,16,4,16,0.00
2013-5-5,63,57,53,54,48,41,92,71,50,29.94,29.88,14,2,14,0.05
2013-5-6,60,56,53,58,54,51,97,94,87,29.93,29.86,15,4,15,0.63
2013-5-7,72,61,55,62,57,54,97,87,63,29.94,29.86,11,2,11,0.02
2013-5-8,74,63,54,63,57,52,97,83,59,29.94,29.87,9,1,10,0.01
2013-5-9,80,65,52,68,59,51,99,82,51,29.97,29.88,6,0,8,0.03
2013-5-10,69,62,58,64,61,57,99,95,84,29.94,29.74,11,1,12,1.17
2013-5-11,61,52,43,60,50,41,99,93,80,29.95,29.78,14,0,14,0.06
2013-5-12,57,46,35,44,39,35,99,79,50,30.08,29.95,6,0,8,0.01
2013-5-13,61,49,38,42,38,32,93,67,38,30.14,30.07,10,1,12,0.00
2013-5-14,78,61,42,60,47,36,84,62,46,30.10,29.78,16,2,16,0.00
2013-5-15,86,75,65,70,62,59,80,64,45,29.81,29.72,12,2,12,0.00
2013-5-16,79,68,61,69,63,58,98,85,61,29.92,29.76,9,0,9,0.45
2013-5-17,79,66,57,69,63,57,100,91,58,30.01,29.92,7,1,8,0.34
2013-5-18,78,68,62,69,64,61,98,89,67,30.01,29.91,12,1,12,0.04
2013-5-19,82,71,62,72,66,61,100,88,61,29.95,29.84,9,1,9,0.01
2013-5-20,78,70,67,72,68,65,99,93,80,29.94,29.81,8,1,8,0.00
2013-5-21,83,75,66,70,66,63,93,75,55,29.89,29.72,13,2,13,0.00
2013-5-22,79,69,63,70,64,61,98,85,62,29.78,29.66,12,2,12,0.42
2013-5-23,69,62,50,64,59,45,100,92,75,30.03,29.73,17,1,20,0.69
2013-5-24,63,53,45,49,43,38,90,70,44,30.27,30.03,16,3,16,0.00
2013-5-25,66,54,42,52,45,39,91,71,46,30.36,30.18,7,0,9,0.00
2013-5-26,69,59,47,52,46,42,94,64,42,30.27,30.14,8,1,8,0.00
2013-5-27,79,66,52,64,55,48,93,70,50,30.17,29.90,13,2,14,0.17
2013-5-28,82,74,65,69,64,60,90,70,55,29.95,29.86,13,2,16,0.01
2013-5-29,85,76,65,69,63,60,83,67,44,30.01,29.91,12,2,12,0.00
2013-5-30,85,77,69,72,67,64,85,73,58,30.08,29.93,12,2,12,0.00
2013-5-31,81,72,66,73,67,64,98,84,66,29.99,29.88,16,2,22,0.74
2013-6-1,80,73,67,72,68,66,98,85,68,29.90,29.70,15,3,15,0.01
2013-6-2,77,70,64,68,63,59,93,81,62,29.87,29.73,14,1,14,0.00
2013-6-3,66,60,54,59,54,50,90,81,69,30.02,29.86,11,2,11,0.00
2013-6-4,74,62,49,52,48,42,91,63,38,30.12,30.01,18,2,18,0.00
2013-6-5,80,68,55,66,56,49,88,66,49,30.05,29.80,10,2,10,0.01
2013-6-6,69,65,62,67,63,58,98,93,83,29.82,29.72,9,2,9,0.82
2013-6-7,72,63,57,61,58,55,98,84,59,29.85,29.75,10,3,11,0.00
2013-6-8,72,64,54,63,58,53,98,83,69,29.99,29.83,7,1,8,0.00
2013-6-9,80,71,60,67,64,59,97,79,57,30.02,29.84,12,2,12,0.00
2013-6-10,79,68,63,70,65,62,99,92,64,29.84,29.72,10,1,11,0.62
2013-6-11,83,72,62,74,67,61,100,86,58,29.90,29.79,7,0,7,0.02
2013-6-12,87,78,68,79,72,66,96,83,66,29.85,29.64,10,1,10,0.00
2013-6-13,81,69,62,74,64,57,99,85,62,29.85,29.52,19,2,19,1.43
2013-6-14,76,67,57,65,59,55,93,77,56,30.00,29.85,12,2,12,0.00
2013-6-15,80,70,56,69,62,55,99,78,57,30.07,29.89,10,1,11,0.00
2013-6-16,77,70,66,71,67,63,97,88,78,29.95,29.87,9,0,9,0.09
2013-6-17,84,73,66,74,69,64,100,87,57,29.92,29.81,6,0,6,0.00
2013-6-18,81,72,65,75,66,59,99,84,62,29.94,29.78,11,2,11,0.84
2013-6-19,77,66,57,62,57,53,92,72,48,30.07,29.93,9,2,9,0.00
2013-6-20,82,70,57,68,60,53,90,71,49,30.15,30.07,6,1,6,0.00
2013-6-21,85,74,60,70,64,58,95,73,51,30.16,30.05,7,1,8,0.00
2013-6-22,87,75,66,78,70,65,97,85,63,30.10,29.98,10,1,10,0.25
2013-6-23,88,74,66,76,69,65,100,85,54,30.07,29.96,11,1,11,0.04
2013-6-24,85,74,65,76,70,64,99,86,56,30.07,29.95,10,1,10,0.01
2013-6-25,89,78,68,79,72,67,99,82,61,30.00,29.80,8,1,9,0.01
2013-6-26,83,73,67,76,70,66,99,90,75,29.87,29.69,8,1,10,0.65
2013-6-27,84,73,67,78,71,67,100,93,74,29.73,29.61,6,0,6,0.14
2013-6-28,84,72,63,75,67,59,99,87,51,29.62,29.51,18,1,19,0.15
2013-6-29,77,68,60,70,65,60,100,90,73,29.60,29.50,9,0,9,0.01
2013-6-30,79,68,64,69,65,63,99,90,63,29.78,29.60,9,1,9,0.47
2013-7-1,76,68,64,70,65,61,96,92,80,29.86,29.75,11,3,11,0.10
2013-7-2,81,72,65,71,67,64,99,87,66,29.95,29.85,8,2,8,0.02
2013-7-3,80,73,67,72,68,66,99,86,68,30.05,29.94,10,1,10,0.00
2013-7-4,72,69,67,70,68,67,99,98,90,30.09,30.01,8,1,10,1.35
2013-7-5,77,70,66,71,68,65,100,94,80,30.09,30.02,7,1,7,0.14
2013-7-6,77,70,68,74,70,67,100,98,89,30.07,29.97,9,1,10,1.46
2013-7-7,81,70,64,73,68,64,100,92,72,30.06,29.96,5,0,7,0.00
2013-7-8,85,75,67,78,72,66,99,88,74,30.07,29.97,6,0,7,0.00
2013-7-9,89,78,72,81,74,70,99,87,69,30.00,29.90,10,1,10,0.14
2013-7-10,88,76,67,81,73,65,99,91,74,29.92,29.75,10,1,21,0.31
2013-7-11,78,70,65,70,65,58,100,83,63,29.96,29.86,16,2,16,0.00
2013-7-12,77,69,59,64,60,56,92,74,55,30.04,29.96,11,2,11,0.00
2013-7-13,82,73,64,70,66,61,90,79,61,30.09,30.00,12,3,13,0.00
2013-7-14,88,78,67,78,72,66,96,81,65,30.15,30.07,10,1,10,0.00
2013-7-15,90,81,70,76,72,69,97,77,51,30.23,30.15,6,1,7,0.00
2013-7-16,91,80,70,80,74,70,100,82,57,30.26,30.17,6,0,6,0.00
2013-7-17,90,81,73,79,75,72,97,82,62,30.25,30.10,8,1,8,0.00
2013-7-18,93,82,73,79,74,71,95,79,51,30.13,29.94,6,0,6,0.00
2013-7-19,89,78,71,81,75,69,99,89,67,29.97,29.81,8,1,9,0.60
2013-7-20,85,75,69,79,72,68,99,93,72,29.86,29.77,15,1,16,0.35
2013-7-21,82,74,67,76,71,67,100,91,70,29.91,29.82,8,1,8,0.01
2013-7-22,75,72,69,74,71,68,100,96,90,29.85,29.69,7,0,7,0.61
2013-7-23,85,74,67,79,71,66,100,91,73,29.76,29.66,11,1,11,0.00
2013-7-24,75,66,59,66,60,55,95,81,64,29.94,29.74,13,3,13,0.00
2013-7-25,75,65,55,61,57,53,94,76,52,30.03,29.94,9,2,10,0.00
2013-7-26,76,63,56,64,58,55,96,86,60,30.04,30.00,4,0,5,0.00
2013-7-27,71,65,61,63,60,58,94,86,70,29.83,29.77,3,0,4,0.59
2013-7-28,71,62,53,60,56,52,99,81,57,30.00,29.83,10,1,10,0.00
2013-7-29,77,65,53,64,58,52,98,81,56,30.13,30.00,7,1,8,0.00
2013-7-30,78,68,56,68,62,55,98,81,56,30.18,30.06,5,0,6,0.00
2013-7-31,73,68,65,69,66,64,98,92,84,30.06,29.88,6,1,6,0.02
2013-8-1,80,71,61,70,66,59,99,86,65,29.93,29.85,9,0,9,0.05
2013-8-2,81,70,57,69,63,56,99,81,55,29.95,29.88,9,1,9,0.01
2013-8-3,78,70,64,73,67,62,99,90,65,29.96,29.89,8,0,8,0.14
2013-8-4,76,67,59,63,59,56,96,77,54,30.08,29.96,12,2,13,0.00
2013-8-5,77,66,55,64,59,54,99,80,55,30.07,29.92,8,1,8,0.01
2013-8-6,80,70,60,70,64,57,95,82,66,29.93,29.86,9,1,9,0.01
2013-8-7,69,68,67,68,67,66,99,97,95,29.88,29.86,3,0,4,0.00
2013-8-8,74,72,71,74,71,70,100,99,97,29.86,29.82,5,0,5,2.13
2013-8-9,79,72,69,75,71,68,100,96,76,29.97,29.83,8,1,8,0.17
2013-8-10,84,73,65,75,69,65,100,89,65,30.06,29.96,7,0,7,0.00
2013-8-11,85,74,65,76,70,65,100,86,65,30.03,29.95,9,0,9,0.00
2013-8-12,85,73,64,74,68,63,100,85,59,30.01,29.81,9,0,9,0.00
2013-8-13,77,70,57,70,64,51,100,82,63,29.99,29.77,11,2,12,0.01
2013-8-14,68,59,52,56,51,49,96,77,58,30.12,29.99,10,2,10,0.00
2013-8-15,72,61,50,58,54,48,97,78,57,30.14,30.04,8,1,8,0.00
2013-8-16,75,66,56,61,56,52,88,73,53,30.11,30.06,10,2,10,0.00
2013-8-17,79,68,58,67,60,54,91,78,59,30.14,30.07,9,2,9,0.00
2013-8-18,79,69,59,67,63,58,98,83,60,30.12,30.03,8,1,8,0.00
2013-8-19,81,70,59,69,63,59,100,82,51,30.08,30.00,8,1,8,0.00
2013-8-20,83,71,61,71,65,60,100,83,56,30.12,30.03,8,1,8,0.01
2013-8-21,83,73,66,75,69,64,95,87,68,30.10,29.98,7,0,7,0.00
2013-8-22,84,72,66,76,70,65,99,91,68,30.05,29.95,12,0,12,0.09
2013-8-23,83,72,65,73,67,62,100,85,59,30.09,29.97,10,2,10,0.01
2013-8-24,83,71,60,70,62,56,90,76,54,30.20,30.09,8,1,8,0.00
2013-8-25,84,72,59,68,62,53,99,76,37,30.27,30.16,8,1,8,0.00
2013-8-26,87,74,62,76,69,61,99,85,59,30.19,30.00,7,0,8,0.00
2013-8-27,88,77,68,79,73,68,100,89,67,30.00,29.88,6,0,6,0.00
2013-8-28,90,80,72,80,75,71,99,86,67,29.89,29.79,10,1,10,0.00
2013-8-29,81,73,68,74,70,67,99,91,73,29.98,29.88,8,1,8,0.00
2013-8-30,87,75,66,75,70,66,100,86,57,29.94,29.76,6,0,7,0.01
2013-8-31,85,75,69,78,72,68,99,90,74,29.79,29.70,7,1,9,0.13
2013-9-1,84,74,66,76,70,65,99,89,68,29.77,29.68,7,0,7,0.00
2013-9-2,84,74,66,76,70,60,100,88,65,29.82,29.70,8,0,12,0.01
2013-9-3,73,64,55,61,57,54,97,81,61,30.01,29.82,11,2,11,0.00
2013-9-4,79,64,53,64,59,52,97,84,54,30.07,30.00,4,0,4,0.00
2013-9-5,83,69,58,68,60,50,98,76,54,30.15,30.06,9,1,10,0.00
2013-9-6,78,63,52,55,51,44,90,67,32,30.19,30.06,8,1,8,0.00
2013-9-7,86,69,54,70,60,50,93,76,53,30.06,29.89,7,0,8,0.00
2013-9-8,88,75,65,72,68,64,100,81,54,29.94,29.86,9,1,9,0.00
2013-9-9,88,77,66,74,69,65,99,80,55,29.97,29.89,10,1,10,0.00
2013-9-10,92,80,72,79,74,70,94,82,60,30.05,29.94,10,1,10,0.00
2013-9-11,90,78,70,78,72,68,97,83,58,30.08,29.94,7,0,8,0.01
2013-9-12,76,71,63,73,70,62,99,94,79,29.94,29.78,7,0,8,0.66
2013-9-13,63,57,51,62,51,45,95,79,58,30.04,29.84,13,3,15,0.00
2013-9-14,68,54,45,51,46,43,95,77,45,30.15,30.04,10,1,10,0.00
2013-9-15,75,60,45,59,52,44,99,78,50,30.11,29.98,10,1,10,0.02
2013-9-16,68,61,56,60,56,52,98,86,65,30.24,30.03,10,2,12,0.03
2013-9-17,74,60,49,58,53,48,96,79,52,30.29,30.12,10,2,10,0.00
2013-9-18,80,66,56,66,60,53,96,82,52,30.13,29.99,7,1,7,0.00
2013-9-19,68,68,68,68,67,67,98,98,97,29.94,29.93,1,0,1,0.22
2013-9-20,68,68,68,68,68,68,99,99,99,29.76,29.74,2,0,2,1.48
2013-9-22,51,50,50,46,46,46,84,84,83,29.96,29.96,0,0,0,0.00
2013-9-23,66,58,44,52,49,43,97,71,54,30.09,30.01,10,2,10,0.00
2013-9-24,70,56,43,58,49,42,98,80,60,30.06,29.89,9,1,9,0.00
2013-9-25,70,58,51,58,53,49,95,82,63,29.90,29.83,8,1,8,0.00
2013-9-26,77,63,52,67,55,49,98,77,53,30.02,29.88,8,1,8,0.00
2013-9-27,78,63,51,58,52,47,90,70,38,30.13,30.02,7,0,7,0.00
2013-9-28,78,64,50,62,55,48,96,75,44,30.14,30.01,8,0,8,0.00
2013-9-29,69,61,54,63,59,53,99,92,76,30.01,29.95,9,0,9,0.05
2013-9-30,69,63,60,65,61,59,99,95,84,29.98,29.91,6,0,6,0.01
2013-10-1,75,65,57,67,62,56,100,91,68,30.03,29.95,7,0,7,0.01
2013-10-2,79,68,59,71,65,59,100,92,73,30.06,29.98,0,0,0,0.01
2013-10-3,75,68,64,73,68,64,100,98,87,30.03,29.94,9,0,9,1.27
2013-10-4,81,70,64,73,68,64,100,94,74,30.03,29.95,5,0,6,0.08
2013-10-5,79,70,64,73,68,64,100,95,80,30.00,29.87,8,1,9,0.23
2013-10-6,72,64,52,69,63,51,100,98,89,29.89,29.64,13,2,13,1.93
2013-10-7,61,51,44,53,48,44,99,90,65,30.12,29.75,7,0,7,0.01
2013-10-8,66,54,42,52,47,42,99,79,46,30.25,30.12,10,2,12,0.01
2013-10-9,71,57,47,56,48,44,91,75,46,30.21,30.12,8,1,10,0.00
2013-10-10,73,56,45,55,47,43,96,74,41,30.15,30.03,7,0,7,0.00
2013-10-11,76,62,49,58,51,45,92,70,42,30.06,29.97,7,0,7,0.00
2013-10-12,77,63,50,66,58,49,99,84,62,30.07,29.98,8,0,8,0.00
2013-10-13,71,60,52,63,55,44,100,83,58,30.25,30.07,9,1,10,0.00
2013-10-14,70,58,47,55,48,43,90,71,46,30.28,30.14,11,2,11,0.00
2013-10-15,72,60,50,66,58,48,100,91,77,30.15,29.89,8,1,8,0.00
2013-10-16,65,60,46,63,58,45,99,93,79,29.91,29.82,7,0,7,0.12
2013-10-17,55,47,40,52,46,40,100,95,88,29.95,29.82,8,0,8,0.08
2013-10-18,64,51,41,53,46,41,100,84,54,30.01,29.90,9,1,10,0.01
2013-10-19,50,45,39,47,43,38,98,94,84,29.96,29.79,5,0,5,0.14
2013-10-20,61,48,37,47,41,36,98,80,58,30.01,29.94,12,2,12,0.02
2013-10-21,65,53,43,50,44,39,92,73,51,29.97,29.84,14,1,14,0.01
2013-10-22,52,43,30,44,34,28,97,74,44,30.00,29.83,7,0,7,0.04
2013-10-23,46,40,35,42,37,34,97,90,76,30.00,29.73,10,2,12,0.16
2013-10-24,44,38,35,38,35,33,96,88,77,30.23,30.00,9,0,10,0.01
2013-10-25,50,37,28,39,31,26,95,80,51,30.41,30.23,8,0,8,0.01
2013-10-26,49,40,31,41,33,27,91,78,62,30.25,29.90,16,1,17,0.00
2013-10-27,56,43,33,43,36,32,98,81,49,30.08,30.02,6,0,6,0.00
2013-10-28,61,45,31,44,37,30,99,75,42,30.27,30.06,7,1,7,0.00
2013-10-29,56,48,38,48,42,36,95,81,67,30.33,30.18,7,1,7,0.00
2013-10-30,62,56,50,62,55,46,100,97,79,30.18,29.95,6,1,6,0.11
2013-10-31,64,62,59,63,60,56,100,93,83,29.95,29.27,18,4,18,1.01
2013-11-1,63,54,47,56,50,46,99,85,63,29.70,29.34,10,1,15,0.06
2013-11-2,56,48,43,47,43,39,95,81,64,30.04,29.68,10,1,10,0.00
2013-11-3,52,44,37,44,40,35,97,86,58,30.34,30.04,7,0,8,0.00
2013-11-4,56,46,37,44,39,33,91,75,58,30.39,30.28,11,2,11,0.00
2013-11-5,61,53,48,48,44,40,93,72,58,30.38,30.17,8,1,8,0.01
2013-11-6,64,56,44,59,50,40,98,79,59,30.18,29.92,13,2,16,0.38
2013-11-7,49,42,34,43,36,31,98,83,54,30.21,29.96,11,1,11,0.04
2013-11-8,49,38,28,37,32,27,97,81,54,30.35,30.16,8,0,8,0.00
2013-11-9,60,48,38,41,35,29,78,62,45,30.22,29.98,14,2,15,0.00
2013-11-10,51,42,30,41,34,29,94,75,54,30.31,30.05,7,1,10,0.00
2013-11-11,49,40,28,44,35,27,97,85,57,30.28,30.06,16,2,16,0.12
2013-11-12,35,28,24,32,24,20,97,85,66,30.59,30.22,16,3,16,0.01
2013-11-13,40,29,18,27,22,17,96,76,47,30.62,30.38,8,1,8,0.00
2013-11-14,53,39,28,27,23,20,79,55,28,30.38,30.13,13,2,13,0.00
2013-11-15,51,43,38,34,26,22,56,50,45,30.15,30.07,10,1,10,0.00
2013-11-16,60,55,48,56,52,47,95,90,86,30.11,29.87,15,4,15,0.00
2013-11-17,63,58,46,62,56,42,98,93,85,29.87,29.43,19,4,20,0.76
2013-11-18,53,44,33,43,38,30,94,81,60,30.15,29.71,12,1,12,0.01
2013-11-19,40,33,27,31,28,26,96,83,67,30.34,30.14,11,1,11,0.00
2013-11-20,49,38,28,35,30,24,86,75,59,30.33,30.21,15,3,15,0.00
2013-11-21,56,48,41,50,41,32,93,76,64,30.30,30.16,10,1,10,0.05
2013-11-22,52,47,36,52,45,31,99,93,80,30.33,30.12,14,2,15,0.19
2013-11-23,39,29,20,32,24,11,97,81,59,30.53,30.31,17,2,17,0.00
2013-11-24,28,19,11,18,13,9,92,78,58,30.67,30.52,10,1,10,0.00
2013-11-25,36,28,16,29,19,13,90,71,48,30.53,30.17,13,1,13,0.00
2013-11-26,34,32,31,32,31,28,97,94,86,30.20,29.90,6,0,7,0.04
2013-11-27,32,27,20,30,21,16,91,80,65,30.26,29.88,17,2,17,0.00
2013-11-28,34,24,17,20,17,14,89,75,51,30.44,30.26,12,1,12,0.01
2013-11-29,37,28,19,26,21,16,91,77,57,30.62,30.44,9,1,9,0.00
2013-11-30,49,36,25,32,27,21,85,70,46,30.51,30.15,9,1,9,0.00
2013-12-1,51,41,35,39,33,28,90,74,60,30.15,29.92,7,1,7,0.00
2013-12-2,48,40,34,41,37,32,97,87,74,29.93,29.77,8,2,8,0.04
2013-12-3,51,42,35,48,41,34,100,95,86,29.86,29.76,8,1,8,0.01
2013-12-4,62,53,43,57,51,42,99,92,85,29.85,29.69,13,2,13,0.00
2013-12-5,62,48,31,60,46,29,97,91,84,30.11,29.71,10,1,12,0.20
2013-12-6,31,28,26,30,27,24,96,95,91,30.38,30.07,10,2,10,0.00
2013-12-7,26,21,11,24,18,9,96,88,76,30.59,30.36,9,1,9,0.15
2013-12-8,32,24,16,31,22,13,98,91,83,30.53,30.00,15,5,15,0.00
2013-12-9,32,28,22,32,27,20,98,94,87,30.21,29.98,7,1,7,0.00
2013-12-10,28,21,15,20,17,12,94,83,63,30.35,30.13,11,1,11,0.02
2013-12-11,36,20,8,26,16,6,95,83,62,30.50,30.27,10,1,10,0.03
2013-12-12,23,15,1,12,7,-2,92,73,45,30.55,30.34,8,1,8,0.00
2013-12-13,36,27,17,31,19,11,95,71,58,30.35,30.15,9,1,9,0.03
2013-12-14,36,33,31,36,33,30,99,98,95,30.16,29.69,12,2,12,0.48
2013-12-15,30,27,24,30,24,20,98,90,78,30.10,29.83,12,1,12,0.00
2013-12-16,31,26,23,30,24,22,97,94,87,30.12,29.98,9,2,9,0.00
2013-12-17,32,29,24,31,26,22,98,92,84,30.14,29.96,6,0,6,0.06
2013-12-18,35,27,17,23,20,16,96,77,57,30.25,30.04,9,1,9,0.05
2013-12-19,51,43,33,41,33,22,75,66,59,30.07,29.92,9,2,10,0.05
2013-12-20,59,53,50,57,47,38,98,81,62,29.93,29.77,12,3,13,0.01
2013-12-21,66,60,56,63,59,55,100,97,91,29.77,29.40,20,4,22,1.67
2013-12-22,62,52,38,61,50,37,99,91,76,29.98,29.46,18,3,22,0.38
2013-12-23,38,31,26,37,28,21,97,86,76,30.35,29.98,8,0,8,0.01
2013-12-24,26,18,12,22,13,9,92,83,68,30.55,30.33,8,0,8,0.00
2013-12-25,32,25,16,26,18,14,91,75,56,30.50,30.18,12,2,12,0.00
2013-12-26,40,32,28,28,25,21,86,74,53,30.33,30.16,10,1,11,0.00
2013-12-27,48,37,29,34,28,24,84,73,56,30.38,30.25,9,1,9,0.00
2013-12-28,52,42,34,37,32,29,83,69,51,30.25,29.99,8,1,11,0.00
2013-12-29,42,38,32,41,36,30,98,91,63,29.99,29.75,8,1,8,0.33
2013-12-30,32,26,22,30,23,17,92,86,79,30.21,29.98,7,1,7,0.01
2013-12-31,33,26,22,24,20,16,84,75,62,30.35,30.14,9,1,9,0.00
2014-1-1,43,32,21,31,26,19,93,80,62,30.29,30.00,8,1,8,0.00
2014-1-2,31,22,9,29,20,6,97,92,86,30.25,29.81,17,4,17,0.00